createdAt,value
2023-03-08T00:01:26.765Z,10.46
2023-03-08T00:03:55.607Z,10.41
2023-03-08T00:06:23.837Z,10.41
2023-03-08T00:08:54.917Z,10.39
2023-03-08T00:11:22.938Z,10.30
2023-03-08T00:13:50.994Z,10.28
2023-03-08T00:16:19.232Z,10.25
2023-03-08T00:18:46.976Z,10.23
2023-03-08T00:21:16.092Z,10.02
2023-03-08T00:23:44.913Z,9.90
2023-03-08T00:26:12.690Z,9.90
2023-03-08T00:28:40.765Z,9.91
2023-03-08T00:31:13.323Z,9.90
2023-03-08T00:33:41.110Z,9.85
2023-03-08T00:36:16.341Z,9.65
2023-03-08T00:38:43.853Z,9.53
2023-03-08T00:41:11.080Z,9.45
2023-03-08T00:43:38.825Z,9.36
2023-03-08T00:46:07.458Z,9.30
2023-03-08T00:48:35.475Z,9.35
2023-03-08T00:51:02.986Z,9.31
2023-03-08T00:53:31.428Z,9.19
2023-03-08T00:56:00.125Z,9.16
2023-03-08T00:58:28.862Z,9.04
2023-03-08T01:00:56.858Z,8.90
2023-03-08T01:03:24.831Z,8.92
2023-03-08T01:05:54.097Z,8.94
2023-03-08T01:08:22.437Z,8.97
2023-03-08T01:10:50.802Z,9.06
2023-03-08T01:13:19.157Z,9.10
2023-03-08T01:15:46.781Z,9.02
2023-03-08T01:18:14.240Z,8.88
2023-03-08T01:20:42.394Z,8.68
2023-03-08T01:23:10.727Z,8.53
2023-03-08T01:25:39.025Z,8.38
2023-03-08T01:28:07.141Z,8.36
2023-03-08T01:30:35.061Z,8.35
2023-03-08T01:33:03.180Z,8.36
2023-03-08T01:35:30.765Z,8.35
2023-03-08T01:37:58.784Z,8.40
2023-03-08T01:40:26.921Z,8.43
2023-03-08T01:42:55.067Z,8.46
2023-03-08T01:45:59.478Z,8.50
2023-03-08T01:48:28.527Z,8.60
2023-03-08T01:50:56.875Z,8.59
2023-03-08T01:53:24.832Z,8.41
2023-03-08T01:55:52.400Z,8.40
2023-03-08T01:58:20.597Z,8.44
2023-03-08T02:00:48.740Z,8.39
2023-03-08T02:03:15.934Z,8.36
2023-03-08T02:05:43.549Z,8.32
2023-03-08T02:08:11.668Z,8.24
2023-03-08T02:10:38.703Z,8.10
2023-03-08T02:13:07.430Z,8.01
2023-03-08T02:15:35.287Z,7.91
2023-03-08T02:18:03.322Z,7.89
2023-03-08T02:20:38.345Z,7.93
2023-03-08T02:23:16.248Z,7.92
2023-03-08T02:25:51.099Z,7.97
2023-03-08T02:28:19.533Z,7.81
2023-03-08T02:30:47.175Z,7.69
2023-03-08T02:33:14.780Z,7.72
2023-03-08T02:35:44.347Z,7.80
2023-03-08T02:38:13.391Z,7.78
2023-03-08T02:40:41.263Z,7.72
2023-03-08T02:43:09.175Z,7.71
2023-03-08T02:45:36.305Z,7.71
2023-03-08T02:48:04.490Z,7.67
2023-03-08T02:50:32.014Z,7.66
2023-03-08T02:53:00.385Z,7.66
2023-03-08T02:55:27.910Z,7.68
2023-03-08T02:57:55.973Z,7.70
2023-03-08T03:00:24.212Z,7.66
2023-03-08T03:02:52.313Z,7.67
2023-03-08T03:05:20.091Z,7.66
2023-03-08T03:07:48.228Z,7.67
2023-03-08T03:10:16.386Z,7.68
2023-03-08T03:12:44.725Z,7.72
2023-03-08T03:15:14.080Z,7.78
2023-03-08T03:17:42.202Z,7.84
2023-03-08T03:20:13.530Z,7.90
2023-03-08T03:22:41.598Z,7.80
2023-03-08T03:25:10.278Z,7.71
2023-03-08T03:27:38.407Z,7.62
2023-03-08T03:30:08.690Z,7.53
2023-03-08T03:32:36.916Z,7.56
2023-03-08T03:35:05.936Z,7.46
2023-03-08T03:37:35.336Z,7.38
2023-03-08T03:40:04.000Z,7.35
2023-03-08T03:42:32.752Z,7.30
2023-03-08T03:45:00.778Z,7.30
2023-03-08T03:47:29.422Z,7.31
2023-03-08T03:49:56.894Z,7.21
2023-03-08T03:52:25.125Z,7.17
2023-03-08T03:54:52.649Z,7.17
2023-03-08T03:57:21.411Z,7.17
2023-03-08T03:59:49.055Z,7.18
2023-03-08T04:02:16.720Z,7.10
2023-03-08T04:04:44.510Z,7.08
2023-03-08T04:07:14.081Z,7.12
2023-03-08T04:09:44.663Z,7.15
2023-03-08T04:12:13.472Z,7.15
2023-03-08T04:14:41.599Z,7.12
2023-03-08T04:17:09.769Z,7.09
2023-03-08T04:22:14.319Z,6.90
2023-03-08T04:24:42.747Z,6.84
2023-03-08T04:27:11.564Z,6.80
2023-03-08T04:29:40.006Z,6.82
2023-03-08T04:45:30.732Z,6.93
2023-03-08T05:01:23.200Z,7.37
2023-03-08T05:03:52.195Z,7.39
2023-03-08T05:06:20.266Z,7.40
2023-03-08T05:11:27.768Z,7.42
2023-03-08T05:13:57.527Z,7.40
2023-03-08T05:16:26.487Z,7.44
2023-03-08T05:18:54.190Z,7.47
2023-03-08T05:21:23.018Z,7.50
2023-03-08T05:23:52.008Z,7.51
2023-03-08T06:11:09.764Z,7.51
2023-03-08T06:13:37.722Z,7.56
2023-03-08T06:16:07.362Z,7.59
2023-03-08T06:18:36.729Z,7.57
2023-03-08T11:28:57.932Z,20.33
2023-03-08T13:39:32.542Z,21.60
2023-03-08T13:42:11.011Z,22.20
2023-03-08T13:44:38.223Z,22.81
2023-03-08T13:47:23.641Z,22.99
2023-03-08T13:49:52.006Z,22.39
2023-03-08T13:52:31.341Z,22.31
2023-03-08T13:55:00.242Z,22.10
2023-03-08T13:57:30.316Z,21.78
2023-03-08T13:59:59.617Z,21.95
2023-03-08T14:02:29.057Z,22.27
2023-03-08T14:48:40.073Z,18.01
2023-03-08T15:36:06.031Z,17.28
2023-03-08T15:38:34.826Z,17.31
2023-03-08T15:41:05.276Z,17.27
2023-03-08T15:48:51.358Z,17.22
2023-03-08T15:56:58.612Z,17.15
2023-03-08T15:59:26.837Z,17.12
2023-03-08T16:01:55.700Z,17.10
2023-03-08T16:04:24.223Z,17.17
2023-03-08T16:06:52.943Z,17.17
2023-03-08T16:09:23.076Z,17.18
2023-03-08T16:11:52.535Z,17.19
2023-03-08T16:14:21.806Z,17.08
2023-03-08T16:51:50.466Z,17.05
2023-03-08T16:54:18.715Z,16.93
2023-03-08T16:56:48.209Z,16.86
2023-03-08T17:23:34.504Z,15.99
2023-03-08T17:26:06.041Z,15.87
2023-03-08T17:28:35.048Z,15.78
2023-03-08T17:31:03.506Z,15.77
2023-03-08T17:33:32.156Z,15.71
2023-03-08T17:36:02.191Z,15.67
2023-03-08T17:38:29.892Z,15.67
2023-03-08T17:40:58.680Z,15.62
2023-03-08T17:43:27.621Z,15.55
2023-03-08T17:51:23.704Z,15.42
2023-03-08T17:53:51.954Z,15.36
2023-03-08T17:56:21.694Z,15.35
2023-03-08T17:58:51.015Z,15.36
2023-03-08T18:01:23.963Z,15.36
2023-03-08T18:03:52.066Z,15.32
2023-03-08T18:06:28.898Z,15.30
2023-03-08T18:08:56.814Z,15.27
2023-03-08T18:11:24.956Z,15.21
2023-03-08T18:16:35.331Z,15.09
2023-03-08T18:19:03.713Z,15.06
2023-03-08T18:21:32.983Z,15.11
2023-03-08T18:24:01.714Z,15.11
2023-03-08T18:26:30.028Z,15.07
2023-03-08T18:28:58.816Z,15.10
2023-03-08T18:31:26.810Z,15.10
2023-03-08T18:33:58.370Z,15.18
2023-03-08T18:36:26.954Z,15.15
2023-03-08T18:38:57.873Z,15.16
2023-03-08T18:41:28.705Z,15.20
2023-03-08T18:43:56.466Z,15.20
2023-03-08T18:54:29.479Z,15.10
2023-03-08T19:21:08.543Z,14.95
2023-03-08T19:23:59.490Z,14.96
2023-03-08T19:26:38.010Z,14.93
2023-03-08T19:29:22.374Z,14.94
2023-03-08T19:32:02.189Z,14.94
2023-03-08T19:34:38.257Z,14.92
2023-03-08T19:37:06.560Z,14.86
2023-03-08T19:39:36.823Z,14.79
2023-03-08T19:42:08.832Z,14.73
2023-03-08T19:44:38.043Z,14.76
2023-03-08T19:47:07.109Z,14.82
2023-03-08T19:49:39.741Z,14.84
2023-03-08T19:52:07.928Z,14.82
2023-03-08T19:54:36.773Z,14.81
2023-03-08T19:57:05.220Z,14.88
2023-03-08T19:59:34.223Z,14.84
2023-03-08T20:02:02.648Z,14.83
2023-03-08T20:04:31.048Z,14.84
2023-03-08T20:07:04.407Z,14.79
2023-03-08T20:09:33.198Z,14.79
2023-03-08T20:12:02.360Z,14.80
2023-03-08T20:14:33.120Z,14.78
2023-03-08T20:17:02.007Z,14.68
2023-03-08T20:19:32.020Z,14.70
2023-03-08T20:22:01.844Z,14.73
2023-03-08T20:24:38.367Z,14.78
2023-03-08T20:27:05.893Z,14.79
2023-03-08T20:29:34.643Z,14.85
2023-03-08T20:32:10.017Z,14.91
2023-03-08T20:34:38.854Z,14.97
2023-03-08T20:37:07.691Z,15.00
2023-03-08T20:39:36.388Z,15.02
2023-03-08T20:42:05.780Z,14.85
2023-03-08T20:44:34.323Z,14.78
2023-03-08T20:47:03.247Z,14.75
2023-03-08T20:49:36.742Z,14.74
2023-03-08T20:52:06.299Z,14.65
2023-03-08T20:54:35.387Z,14.65
2023-03-08T20:57:05.669Z,14.68
2023-03-08T20:59:35.106Z,14.71
2023-03-08T21:02:04.006Z,14.73
2023-03-08T21:04:32.652Z,14.75
2023-03-08T21:07:00.455Z,14.72
2023-03-08T21:09:29.369Z,14.75
2023-03-08T21:11:57.954Z,14.72
2023-03-08T21:14:26.784Z,14.74
2023-03-08T21:16:55.915Z,14.71
2023-03-08T21:19:25.140Z,14.76
2023-03-08T21:21:53.146Z,14.74
2023-03-08T21:24:25.593Z,14.76
2023-03-08T21:26:54.070Z,14.76
2023-03-08T21:29:22.970Z,14.75
2023-03-08T21:31:51.153Z,14.77
2023-03-08T21:34:19.972Z,14.76
2023-03-08T21:36:48.608Z,14.78
2023-03-08T21:39:18.142Z,14.84
2023-03-08T21:41:49.452Z,14.82
2023-03-08T21:44:20.876Z,14.79
2023-03-08T21:46:49.425Z,14.74
2023-03-08T21:49:19.989Z,14.74
2023-03-08T21:51:48.806Z,14.74
2023-03-08T21:54:17.875Z,14.76
2023-03-08T21:56:47.027Z,14.78
2023-03-08T21:59:16.880Z,14.79
2023-03-08T22:01:48.407Z,14.74
2023-03-08T22:04:18.340Z,14.71
2023-03-08T22:06:47.794Z,14.74
2023-03-08T22:09:17.146Z,14.73
2023-03-08T22:11:45.836Z,14.76
2023-03-08T22:14:14.644Z,14.67
2023-03-08T22:16:42.672Z,14.70
2023-03-08T22:19:11.974Z,14.67
2023-03-08T22:21:40.711Z,14.67
2023-03-08T22:24:14.116Z,14.62
2023-03-08T22:26:43.527Z,14.57
2023-03-08T22:29:11.843Z,14.50
2023-03-08T22:31:40.411Z,14.43
2023-03-08T22:34:09.713Z,14.44
2023-03-08T22:36:39.160Z,14.45
2023-03-08T22:39:08.085Z,14.43
2023-03-08T22:41:39.010Z,14.34
2023-03-08T22:44:06.616Z,14.34
2023-03-08T22:46:35.592Z,14.34
2023-03-08T22:49:05.138Z,14.37
2023-03-08T22:51:34.569Z,14.35
2023-03-08T22:54:05.759Z,14.37
2023-03-08T22:56:34.033Z,14.32
2023-03-08T22:59:03.481Z,14.34
2023-03-08T23:01:33.305Z,14.42
2023-03-08T23:04:02.450Z,14.38
2023-03-08T23:06:30.845Z,14.39
2023-03-08T23:09:02.734Z,14.35
2023-03-08T23:11:31.862Z,14.36
2023-03-08T23:14:01.216Z,14.36
2023-03-08T23:16:29.854Z,14.38
2023-03-08T23:18:58.717Z,14.43
2023-03-08T23:21:27.612Z,14.45
2023-03-08T23:23:56.394Z,14.47
2023-03-08T23:26:26.967Z,14.43
2023-03-08T23:28:56.018Z,14.40
2023-03-08T23:31:27.367Z,14.44
2023-03-08T23:33:55.632Z,14.47
2023-03-08T23:36:25.751Z,14.48
2023-03-08T23:38:55.071Z,14.49
2023-03-08T23:41:24.976Z,14.51
2023-03-08T23:43:56.458Z,14.48
2023-03-08T23:46:24.545Z,14.46
2023-03-08T23:48:55.576Z,14.46
2023-03-08T23:51:24.053Z,14.45
2023-03-08T23:53:53.912Z,14.39
2023-03-08T23:56:31.044Z,14.44
2023-03-08T23:59:00.762Z,14.49
